sensor_id;sensor_type;location;lat;lon;timestamp;P1;durP1;ratioP1;P2;durP2;ratioP2
26014;SDS011;13793;55.388;37.844;2023-07-09T00:00:17;26.75;;;23.10;;
26014;SDS011;13793;55.388;37.844;2023-07-09T00:02:53;30.85;;;22.67;;
26014;SDS011;13793;55.388;37.844;2023-07-09T00:05:24;27.73;;;22.42;;
26014;SDS011;13793;55.388;37.844;2023-07-09T00:08:05;28.30;;;22.32;;
26014;SDS011;13793;55.388;37.844;2023-07-09T00:10:37;30.23;;;22.90;;
26014;SDS011;13793;55.388;37.844;2023-07-09T00:13:24;29.57;;;24.37;;
26014;SDS011;13793;55.388;37.844;2023-07-09T00:15:57;29.80;;;23.20;;
26014;SDS011;13793;55.388;37.844;2023-07-09T00:18:39;29.67;;;21.95;;
26014;SDS011;13793;55.388;37.844;2023-07-09T00:21:09;33.67;;;23.22;;
26014;SDS011;13793;55.388;37.844;2023-07-09T00:23:52;26.57;;;21.68;;
26014;SDS011;13793;55.388;37.844;2023-07-09T00:26:23;26.57;;;21.73;;
26014;SDS011;13793;55.388;37.844;2023-07-09T00:29:05;27.00;;;22.15;;
26014;SDS011;13793;55.388;37.844;2023-07-09T00:31:47;25.37;;;21.55;;
26014;SDS011;13793;55.388;37.844;2023-07-09T00:34:18;25.32;;;21.23;;
26014;SDS011;13793;55.388;37.844;2023-07-09T00:37:00;25.43;;;21.40;;
26014;SDS011;13793;55.388;37.844;2023-07-09T00:39:31;29.42;;;22.45;;
26014;SDS011;13793;55.388;37.844;2023-07-09T00:42:19;28.25;;;22.62;;
26014;SDS011;13793;55.388;37.844;2023-07-09T00:44:53;23.35;;;20.23;;
26014;SDS011;13793;55.388;37.844;2023-07-09T00:47:44;26.45;;;20.05;;
26014;SDS011;13793;55.388;37.844;2023-07-09T00:50:26;28.00;;;21.42;;
26014;SDS011;13793;55.388;37.844;2023-07-09T00:53:24;26.90;;;20.12;;
26014;SDS011;13793;55.388;37.844;2023-07-09T00:56:00;23.77;;;20.88;;
26014;SDS011;13793;55.388;37.844;2023-07-09T00:58:43;30.43;;;21.45;;
26014;SDS011;13793;55.388;37.844;2023-07-09T01:01:32;27.90;;;20.40;;
26014;SDS011;13793;55.388;37.844;2023-07-09T01:04:03;23.32;;;18.60;;
26014;SDS011;13793;55.388;37.844;2023-07-09T01:06:45;27.45;;;19.42;;
26014;SDS011;13793;55.388;37.844;2023-07-09T01:09:32;24.95;;;20.02;;
26014;SDS011;13793;55.388;37.844;2023-07-09T01:12:16;23.02;;;18.87;;
26014;SDS011;13793;55.388;37.844;2023-07-09T01:14:47;24.67;;;20.20;;
26014;SDS011;13793;55.388;37.844;2023-07-09T01:17:30;22.20;;;18.60;;
26014;SDS011;13793;55.388;37.844;2023-07-09T01:20:01;22.67;;;18.75;;
26014;SDS011;13793;55.388;37.844;2023-07-09T01:22:42;19.92;;;17.55;;
26014;SDS011;13793;55.388;37.844;2023-07-09T01:25:12;21.50;;;18.30;;
26014;SDS011;13793;55.388;37.844;2023-07-09T01:27:53;23.73;;;18.25;;
26014;SDS011;13793;55.388;37.844;2023-07-09T01:30:29;23.75;;;19.07;;
26014;SDS011;13793;55.388;37.844;2023-07-09T01:33:10;21.02;;;17.65;;
26014;SDS011;13793;55.388;37.844;2023-07-09T01:35:40;22.67;;;18.70;;
26014;SDS011;13793;55.388;37.844;2023-07-09T01:38:21;26.07;;;17.90;;
26014;SDS011;13793;55.388;37.844;2023-07-09T01:40:52;24.30;;;18.52;;
26014;SDS011;13793;55.388;37.844;2023-07-09T01:43:33;23.20;;;18.67;;
26014;SDS011;13793;55.388;37.844;2023-07-09T01:46:05;25.08;;;17.95;;
26014;SDS011;13793;55.388;37.844;2023-07-09T01:48:46;21.25;;;18.37;;
26014;SDS011;13793;55.388;37.844;2023-07-09T01:51:18;24.05;;;19.07;;
26014;SDS011;13793;55.388;37.844;2023-07-09T01:54:02;21.93;;;18.52;;
26014;SDS011;13793;55.388;37.844;2023-07-09T01:56:33;28.07;;;19.45;;
26014;SDS011;13793;55.388;37.844;2023-07-09T01:59:23;26.48;;;18.85;;
26014;SDS011;13793;55.388;37.844;2023-07-09T02:01:54;23.32;;;19.07;;
26014;SDS011;13793;55.388;37.844;2023-07-09T02:04:36;23.60;;;18.92;;
26014;SDS011;13793;55.388;37.844;2023-07-09T02:07:06;27.80;;;19.90;;
26014;SDS011;13793;55.388;37.844;2023-07-09T02:09:47;27.22;;;19.50;;
26014;SDS011;13793;55.388;37.844;2023-07-09T02:12:18;24.45;;;17.62;;
26014;SDS011;13793;55.388;37.844;2023-07-09T02:14:59;20.75;;;17.07;;
26014;SDS011;13793;55.388;37.844;2023-07-09T02:17:31;21.55;;;17.67;;
26014;SDS011;13793;55.388;37.844;2023-07-09T02:20:12;24.18;;;18.75;;
26014;SDS011;13793;55.388;37.844;2023-07-09T02:22:43;27.30;;;18.48;;
26014;SDS011;13793;55.388;37.844;2023-07-09T02:25:24;28.12;;;19.42;;
26014;SDS011;13793;55.388;37.844;2023-07-09T02:27:55;25.85;;;19.55;;
26014;SDS011;13793;55.388;37.844;2023-07-09T02:30:36;25.60;;;18.98;;
26014;SDS011;13793;55.388;37.844;2023-07-09T02:33:07;23.05;;;19.45;;
26014;SDS011;13793;55.388;37.844;2023-07-09T02:35:48;24.30;;;18.90;;
26014;SDS011;13793;55.388;37.844;2023-07-09T02:38:18;27.42;;;19.02;;
26014;SDS011;13793;55.388;37.844;2023-07-09T02:40:59;27.02;;;19.85;;
26014;SDS011;13793;55.388;37.844;2023-07-09T02:43:30;27.52;;;19.50;;
26014;SDS011;13793;55.388;37.844;2023-07-09T02:46:11;24.77;;;20.15;;
26014;SDS011;13793;55.388;37.844;2023-07-09T02:48:41;27.30;;;19.85;;
26014;SDS011;13793;55.388;37.844;2023-07-09T02:51:22;25.27;;;20.08;;
26014;SDS011;13793;55.388;37.844;2023-07-09T02:53:56;24.82;;;19.25;;
26014;SDS011;13793;55.388;37.844;2023-07-09T02:56:43;27.05;;;19.92;;
26014;SDS011;13793;55.388;37.844;2023-07-09T02:59:15;24.52;;;18.77;;
26014;SDS011;13793;55.388;37.844;2023-07-09T03:02:02;25.50;;;20.43;;
26014;SDS011;13793;55.388;37.844;2023-07-09T03:04:33;29.40;;;18.67;;
26014;SDS011;13793;55.388;37.844;2023-07-09T03:07:14;28.32;;;19.02;;
26014;SDS011;13793;55.388;37.844;2023-07-09T03:09:44;26.42;;;18.17;;
26014;SDS011;13793;55.388;37.844;2023-07-09T03:12:25;27.20;;;18.10;;
26014;SDS011;13793;55.388;37.844;2023-07-09T03:15:06;23.25;;;16.52;;
26014;SDS011;13793;55.388;37.844;2023-07-09T03:17:37;22.58;;;16.48;;
26014;SDS011;13793;55.388;37.844;2023-07-09T03:20:23;20.72;;;16.80;;
26014;SDS011;13793;55.388;37.844;2023-07-09T03:23:04;21.85;;;15.03;;
26014;SDS011;13793;55.388;37.844;2023-07-09T03:25:45;18.02;;;14.55;;
26014;SDS011;13793;55.388;37.844;2023-07-09T03:28:30;21.33;;;15.08;;
26014;SDS011;13793;55.388;37.844;2023-07-09T03:31:11;18.67;;;13.22;;
26014;SDS011;13793;55.388;37.844;2023-07-09T03:33:51;18.48;;;13.28;;
26014;SDS011;13793;55.388;37.844;2023-07-09T03:36:38;18.30;;;12.82;;
26014;SDS011;13793;55.388;37.844;2023-07-09T03:39:20;15.08;;;11.83;;
26014;SDS011;13793;55.388;37.844;2023-07-09T03:42:04;16.35;;;11.97;;
26014;SDS011;13793;55.388;37.844;2023-07-09T03:44:45;15.53;;;10.28;;
26014;SDS011;13793;55.388;37.844;2023-07-09T03:47:25;11.63;;;9.53;;
26014;SDS011;13793;55.388;37.844;2023-07-09T03:50:12;12.65;;;9.48;;
26014;SDS011;13793;55.388;37.844;2023-07-09T03:52:59;12.37;;;8.15;;
26014;SDS011;13793;55.388;37.844;2023-07-09T03:55:40;9.65;;;7.78;;
26014;SDS011;13793;55.388;37.844;2023-07-09T03:58:21;12.23;;;7.58;;
26014;SDS011;13793;55.388;37.844;2023-07-09T04:01:03;10.45;;;6.97;;
26014;SDS011;13793;55.388;37.844;2023-07-09T04:03:46;11.45;;;6.80;;
26014;SDS011;13793;55.388;37.844;2023-07-09T04:06:33;9.43;;;7.05;;
26014;SDS011;13793;55.388;37.844;2023-07-09T04:09:13;9.90;;;7.30;;
26014;SDS011;13793;55.388;37.844;2023-07-09T04:12:00;11.78;;;8.55;;
26014;SDS011;13793;55.388;37.844;2023-07-09T04:14:41;8.30;;;7.40;;
26014;SDS011;13793;55.388;37.844;2023-07-09T04:17:22;14.05;;;8.63;;
26014;SDS011;13793;55.388;37.844;2023-07-09T04:20:06;7.53;;;6.00;;
26014;SDS011;13793;55.388;37.844;2023-07-09T04:22:48;6.92;;;5.58;;
26014;SDS011;13793;55.388;37.844;2023-07-09T04:25:31;7.45;;;5.30;;
26014;SDS011;13793;55.388;37.844;2023-07-09T04:28:12;6.05;;;4.78;;
26014;SDS011;13793;55.388;37.844;2023-07-09T04:30:54;5.97;;;4.70;;
26014;SDS011;13793;55.388;37.844;2023-07-09T04:33:35;5.67;;;4.70;;
26014;SDS011;13793;55.388;37.844;2023-07-09T04:36:15;6.03;;;4.35;;
26014;SDS011;13793;55.388;37.844;2023-07-09T04:38:56;6.72;;;4.40;;
26014;SDS011;13793;55.388;37.844;2023-07-09T04:41:43;6.30;;;4.72;;
26014;SDS011;13793;55.388;37.844;2023-07-09T04:44:24;6.28;;;4.17;;
26014;SDS011;13793;55.388;37.844;2023-07-09T04:47:07;6.35;;;4.30;;
26014;SDS011;13793;55.388;37.844;2023-07-09T04:49:48;5.85;;;5.15;;
26014;SDS011;13793;55.388;37.844;2023-07-09T04:52:48;6.15;;;5.00;;
26014;SDS011;13793;55.388;37.844;2023-07-09T04:55:30;9.85;;;4.87;;
26014;SDS011;13793;55.388;37.844;2023-07-09T04:58:14;7.45;;;4.33;;
26014;SDS011;13793;55.388;37.844;2023-07-09T05:00:58;6.53;;;4.30;;
26014;SDS011;13793;55.388;37.844;2023-07-09T05:03:39;6.55;;;4.17;;
26014;SDS011;13793;55.388;37.844;2023-07-09T05:06:22;5.20;;;4.08;;
26014;SDS011;13793;55.388;37.844;2023-07-09T05:09:03;6.12;;;4.08;;
26014;SDS011;13793;55.388;37.844;2023-07-09T05:11:44;7.05;;;4.12;;
26014;SDS011;13793;55.388;37.844;2023-07-09T05:14:32;6.03;;;4.00;;
26014;SDS011;13793;55.388;37.844;2023-07-09T05:17:13;29.15;;;22.27;;
26014;SDS011;13793;55.388;37.844;2023-07-09T05:19:54;9.95;;;5.10;;
26014;SDS011;13793;55.388;37.844;2023-07-09T05:22:35;10.98;;;7.35;;
26014;SDS011;13793;55.388;37.844;2023-07-09T05:25:21;27.40;;;24.70;;
26014;SDS011;13793;55.388;37.844;2023-07-09T05:27:52;6.72;;;4.80;;
26014;SDS011;13793;55.388;37.844;2023-07-09T05:30:33;10.43;;;8.55;;
26014;SDS011;13793;55.388;37.844;2023-07-09T05:33:03;8.50;;;5.58;;
26014;SDS011;13793;55.388;37.844;2023-07-09T05:35:44;6.28;;;4.08;;
26014;SDS011;13793;55.388;37.844;2023-07-09T05:38:15;4.45;;;3.40;;
26014;SDS011;13793;55.388;37.844;2023-07-09T05:41:03;7.15;;;3.83;;
26014;SDS011;13793;55.388;37.844;2023-07-09T05:43:34;5.67;;;3.52;;
26014;SDS011;13793;55.388;37.844;2023-07-09T05:46:14;5.42;;;4.15;;
26014;SDS011;13793;55.388;37.844;2023-07-09T05:48:45;7.70;;;3.95;;
26014;SDS011;13793;55.388;37.844;2023-07-09T05:51:26;7.15;;;3.60;;
26014;SDS011;13793;55.388;37.844;2023-07-09T05:53:58;6.70;;;3.58;;
26014;SDS011;13793;55.388;37.844;2023-07-09T05:56:39;7.40;;;3.80;;
26014;SDS011;13793;55.388;37.844;2023-07-09T05:59:10;6.53;;;3.58;;
26014;SDS011;13793;55.388;37.844;2023-07-09T06:01:51;6.53;;;4.30;;
26014;SDS011;13793;55.388;37.844;2023-07-09T06:04:22;7.33;;;4.00;;
26014;SDS011;13793;55.388;37.844;2023-07-09T06:07:04;5.42;;;3.67;;
26014;SDS011;13793;55.388;37.844;2023-07-09T06:09:39;7.53;;;3.58;;
26014;SDS011;13793;55.388;37.844;2023-07-09T06:12:19;4.03;;;3.00;;
26014;SDS011;13793;55.388;37.844;2023-07-09T06:14:50;5.40;;;2.72;;
26014;SDS011;13793;55.388;37.844;2023-07-09T06:17:31;3.27;;;2.47;;
26014;SDS011;13793;55.388;37.844;2023-07-09T06:20:02;4.50;;;2.98;;
26014;SDS011;13793;55.388;37.844;2023-07-09T06:22:47;5.70;;;3.22;;
26014;SDS011;13793;55.388;37.844;2023-07-09T06:25:27;27.87;;;24.80;;
26014;SDS011;13793;55.388;37.844;2023-07-09T06:27:59;6.58;;;4.65;;
26014;SDS011;13793;55.388;37.844;2023-07-09T06:30:40;4.60;;;3.00;;
26014;SDS011;13793;55.388;37.844;2023-07-09T06:33:12;4.42;;;2.62;;
26014;SDS011;13793;55.388;37.844;2023-07-09T06:35:55;3.70;;;2.45;;
26014;SDS011;13793;55.388;37.844;2023-07-09T06:38:28;3.72;;;2.20;;
26014;SDS011;13793;55.388;37.844;2023-07-09T06:41:09;2.90;;;1.95;;
26014;SDS011;13793;55.388;37.844;2023-07-09T06:43:40;2.85;;;2.20;;
26014;SDS011;13793;55.388;37.844;2023-07-09T06:46:21;2.92;;;2.00;;
26014;SDS011;13793;55.388;37.844;2023-07-09T06:48:51;3.72;;;2.35;;
26014;SDS011;13793;55.388;37.844;2023-07-09T06:51:33;4.83;;;2.40;;
26014;SDS011;13793;55.388;37.844;2023-07-09T06:54:04;3.10;;;1.90;;
26014;SDS011;13793;55.388;37.844;2023-07-09T06:56:46;2.62;;;2.20;;
26014;SDS011;13793;55.388;37.844;2023-07-09T06:59:17;3.52;;;2.35;;
26014;SDS011;13793;55.388;37.844;2023-07-09T07:01:58;3.65;;;2.87;;
26014;SDS011;13793;55.388;37.844;2023-07-09T07:04:39;3.40;;;2.20;;
26014;SDS011;13793;55.388;37.844;2023-07-09T07:07:10;2.75;;;2.47;;
26014;SDS011;13793;55.388;37.844;2023-07-09T07:09:57;35.65;;;27.07;;
26014;SDS011;13793;55.388;37.844;2023-07-09T07:12:29;8.45;;;6.47;;
26014;SDS011;13793;55.388;37.844;2023-07-09T07:15:12;3.33;;;2.87;;
26014;SDS011;13793;55.388;37.844;2023-07-09T07:17:44;5.65;;;3.30;;
26014;SDS011;13793;55.388;37.844;2023-07-09T07:20:25;3.83;;;2.85;;
26014;SDS011;13793;55.388;37.844;2023-07-09T07:22:56;3.85;;;2.75;;
26014;SDS011;13793;55.388;37.844;2023-07-09T07:25:38;3.33;;;2.52;;
26014;SDS011;13793;55.388;37.844;2023-07-09T07:28:20;3.52;;;2.50;;
26014;SDS011;13793;55.388;37.844;2023-07-09T07:31:02;6.20;;;2.80;;
26014;SDS011;13793;55.388;37.844;2023-07-09T07:33:38;4.30;;;2.60;;
26014;SDS011;13793;55.388;37.844;2023-07-09T07:36:19;3.22;;;2.60;;
26014;SDS011;13793;55.388;37.844;2023-07-09T07:38:49;6.60;;;2.67;;
26014;SDS011;13793;55.388;37.844;2023-07-09T07:41:30;3.42;;;2.85;;
26014;SDS011;13793;55.388;37.844;2023-07-09T07:44:01;4.17;;;2.52;;
26014;SDS011;13793;55.388;37.844;2023-07-09T07:46:42;12.10;;;10.32;;
26014;SDS011;13793;55.388;37.844;2023-07-09T07:49:15;11.43;;;7.53;;
26014;SDS011;13793;55.388;37.844;2023-07-09T07:51:57;5.03;;;2.87;;
26014;SDS011;13793;55.388;37.844;2023-07-09T07:54:31;3.50;;;2.62;;
26014;SDS011;13793;55.388;37.844;2023-07-09T07:57:12;4.42;;;2.62;;
26014;SDS011;13793;55.388;37.844;2023-07-09T07:59:43;2.50;;;2.20;;
26014;SDS011;13793;55.388;37.844;2023-07-09T08:02:25;3.60;;;2.35;;
26014;SDS011;13793;55.388;37.844;2023-07-09T08:04:57;3.98;;;2.65;;
26014;SDS011;13793;55.388;37.844;2023-07-09T08:07:38;5.45;;;2.62;;
26014;SDS011;13793;55.388;37.844;2023-07-09T08:10:09;3.35;;;2.55;;
26014;SDS011;13793;55.388;37.844;2023-07-09T08:12:50;3.52;;;2.70;;
26014;SDS011;13793;55.388;37.844;2023-07-09T08:15:33;41.28;;;37.00;;
26014;SDS011;13793;55.388;37.844;2023-07-09T08:18:14;21.23;;;18.57;;
26014;SDS011;13793;55.388;37.844;2023-07-09T08:20:45;6.53;;;4.25;;
26014;SDS011;13793;55.388;37.844;2023-07-09T08:23:26;4.72;;;3.12;;
26014;SDS011;13793;55.388;37.844;2023-07-09T08:25:58;6.25;;;2.70;;
26014;SDS011;13793;55.388;37.844;2023-07-09T08:28:47;4.65;;;2.60;;
26014;SDS011;13793;55.388;37.844;2023-07-09T08:31:18;4.20;;;2.50;;
26014;SDS011;13793;55.388;37.844;2023-07-09T08:33:59;58.35;;;51.20;;
26014;SDS011;13793;55.388;37.844;2023-07-09T08:36:30;7.30;;;6.58;;
26014;SDS011;13793;55.388;37.844;2023-07-09T08:39:11;8.83;;;4.78;;
26014;SDS011;13793;55.388;37.844;2023-07-09T08:50:22;4.00;;;2.70;;
26014;SDS011;13793;55.388;37.844;2023-07-09T08:52:58;3.70;;;2.70;;
26014;SDS011;13793;55.388;37.844;2023-07-09T08:55:39;3.85;;;2.92;;
26014;SDS011;13793;55.388;37.844;2023-07-09T08:58:17;6.70;;;2.80;;
26014;SDS011;13793;55.388;37.844;2023-07-09T09:00:55;5.08;;;2.90;;
26014;SDS011;13793;55.388;37.844;2023-07-09T09:03:29;4.42;;;2.50;;
26014;SDS011;13793;55.388;37.844;2023-07-09T09:06:22;5.33;;;2.55;;
26014;SDS011;13793;55.388;37.844;2023-07-09T09:09:12;4.78;;;2.58;;
26014;SDS011;13793;55.388;37.844;2023-07-09T09:14:41;2.77;;;2.15;;
26014;SDS011;13793;55.388;37.844;2023-07-09T09:17:25;5.30;;;2.30;;
26014;SDS011;13793;55.388;37.844;2023-07-09T09:20:02;3.67;;;2.60;;
26014;SDS011;13793;55.388;37.844;2023-07-09T09:22:46;4.30;;;2.40;;
26014;SDS011;13793;55.388;37.844;2023-07-09T09:25:21;3.62;;;2.30;;
26014;SDS011;13793;55.388;37.844;2023-07-09T09:28:07;5.62;;;2.40;;
26014;SDS011;13793;55.388;37.844;2023-07-09T09:30:38;3.25;;;2.33;;
26014;SDS011;13793;55.388;37.844;2023-07-09T09:33:19;4.20;;;2.62;;
26014;SDS011;13793;55.388;37.844;2023-07-09T09:36:01;5.80;;;2.42;;
26014;SDS011;13793;55.388;37.844;2023-07-09T09:38:35;4.67;;;2.58;;
26014;SDS011;13793;55.388;37.844;2023-07-09T09:41:17;4.53;;;2.45;;
26014;SDS011;13793;55.388;37.844;2023-07-09T09:43:51;4.17;;;2.20;;
26014;SDS011;13793;55.388;37.844;2023-07-09T09:46:32;5.92;;;4.60;;
26014;SDS011;13793;55.388;37.844;2023-07-09T09:49:08;6.58;;;5.87;;
26014;SDS011;13793;55.388;37.844;2023-07-09T09:51:47;3.45;;;2.65;;
26014;SDS011;13793;55.388;37.844;2023-07-09T09:54:28;3.45;;;2.55;;
26014;SDS011;13793;55.388;37.844;2023-07-09T09:57:19;2.30;;;2.10;;
26014;SDS011;13793;55.388;37.844;2023-07-09T09:59:54;5.60;;;2.25;;
26014;SDS011;13793;55.388;37.844;2023-07-09T10:02:41;4.03;;;2.00;;
26014;SDS011;13793;55.388;37.844;2023-07-09T10:05:14;4.05;;;2.20;;
26014;SDS011;13793;55.388;37.844;2023-07-09T10:07:59;3.12;;;2.15;;
26014;SDS011;13793;55.388;37.844;2023-07-09T10:10:40;5.53;;;2.27;;
26014;SDS011;13793;55.388;37.844;2023-07-09T10:16:13;3.70;;;2.40;;
26014;SDS011;13793;55.388;37.844;2023-07-09T10:21:41;4.67;;;2.22;;
26014;SDS011;13793;55.388;37.844;2023-07-09T10:24:31;2.30;;;2.10;;
26014;SDS011;13793;55.388;37.844;2023-07-09T10:33:00;3.12;;;1.90;;
26014;SDS011;13793;55.388;37.844;2023-07-09T10:35:59;2.80;;;2.20;;
26014;SDS011;13793;55.388;37.844;2023-07-09T10:38:40;4.10;;;1.98;;
26014;SDS011;13793;55.388;37.844;2023-07-09T10:41:20;7.28;;;2.20;;
26014;SDS011;13793;55.388;37.844;2023-07-09T10:43:59;2.62;;;1.77;;
26014;SDS011;13793;55.388;37.844;2023-07-09T10:46:58;3.83;;;2.25;;
26014;SDS011;13793;55.388;37.844;2023-07-09T10:49:32;2.00;;;1.83;;
26014;SDS011;13793;55.388;37.844;2023-07-09T10:52:34;5.53;;;2.00;;
26014;SDS011;13793;55.388;37.844;2023-07-09T11:00:48;2.20;;;2.00;;
26014;SDS011;13793;55.388;37.844;2023-07-09T11:03:40;5.53;;;1.95;;
26014;SDS011;13793;55.388;37.844;2023-07-09T11:06:28;2.92;;;1.85;;
26014;SDS011;13793;55.388;37.844;2023-07-09T11:11:31;4.37;;;2.58;;
26014;SDS011;13793;55.388;37.844;2023-07-09T11:14:33;10.23;;;7.30;;
26014;SDS011;13793;55.388;37.844;2023-07-09T11:17:20;4.35;;;3.47;;
26014;SDS011;13793;55.388;37.844;2023-07-09T11:19:55;2.92;;;2.45;;
26014;SDS011;13793;55.388;37.844;2023-07-09T11:22:40;4.85;;;2.30;;
26014;SDS011;13793;55.388;37.844;2023-07-09T11:25:14;2.87;;;2.22;;
26014;SDS011;13793;55.388;37.844;2023-07-09T11:28:03;5.33;;;2.20;;
26014;SDS011;13793;55.388;37.844;2023-07-09T11:30:45;5.83;;;2.20;;
26014;SDS011;13793;55.388;37.844;2023-07-09T11:33:27;4.28;;;2.30;;
26014;SDS011;13793;55.388;37.844;2023-07-09T11:36:08;6.58;;;2.42;;
26014;SDS011;13793;55.388;37.844;2023-07-09T11:38:50;2.87;;;2.00;;
26014;SDS011;13793;55.388;37.844;2023-07-09T11:41:34;3.58;;;2.40;;
26014;SDS011;13793;55.388;37.844;2023-07-09T11:44:28;3.95;;;2.30;;
26014;SDS011;13793;55.388;37.844;2023-07-09T11:50:06;13.35;;;12.07;;
26014;SDS011;13793;55.388;37.844;2023-07-09T11:55:56;5.58;;;5.08;;
26014;SDS011;13793;55.388;37.844;2023-07-09T11:58:37;3.17;;;2.72;;
26014;SDS011;13793;55.388;37.844;2023-07-09T12:01:34;2.90;;;2.02;;
26014;SDS011;13793;55.388;37.844;2023-07-09T12:04:19;2.62;;;1.90;;
26014;SDS011;13793;55.388;37.844;2023-07-09T12:07:05;2.40;;;2.08;;
26014;SDS011;13793;55.388;37.844;2023-07-09T12:09:47;2.98;;;1.98;;
26014;SDS011;13793;55.388;37.844;2023-07-09T12:12:29;1.90;;;1.77;;
26014;SDS011;13793;55.388;37.844;2023-07-09T12:15:15;3.98;;;1.85;;
26014;SDS011;13793;55.388;37.844;2023-07-09T12:17:59;3.35;;;1.87;;
26014;SDS011;13793;55.388;37.844;2023-07-09T12:20:39;2.17;;;1.98;;
26014;SDS011;13793;55.388;37.844;2023-07-09T12:23:25;3.90;;;2.10;;
26014;SDS011;13793;55.388;37.844;2023-07-09T12:26:13;3.72;;;2.12;;
26014;SDS011;13793;55.388;37.844;2023-07-09T12:28:57;12.00;;;10.75;;
26014;SDS011;13793;55.388;37.844;2023-07-09T12:31:39;4.80;;;4.33;;
26014;SDS011;13793;55.388;37.844;2023-07-09T12:34:20;3.15;;;2.15;;
26014;SDS011;13793;55.388;37.844;2023-07-09T12:37:01;3.20;;;1.90;;
26014;SDS011;13793;55.388;37.844;2023-07-09T12:39:42;4.55;;;1.95;;
26014;SDS011;13793;55.388;37.844;2023-07-09T12:42:43;3.67;;;2.02;;
26014;SDS011;13793;55.388;37.844;2023-07-09T12:45:24;3.80;;;1.90;;
26014;SDS011;13793;55.388;37.844;2023-07-09T12:48:05;3.55;;;2.02;;
26014;SDS011;13793;55.388;37.844;2023-07-09T12:50:50;3.52;;;2.00;;
26014;SDS011;13793;55.388;37.844;2023-07-09T12:53:31;2.72;;;2.20;;
26014;SDS011;13793;55.388;37.844;2023-07-09T12:56:15;4.35;;;2.27;;
26014;SDS011;13793;55.388;37.844;2023-07-09T12:58:56;11.65;;;9.98;;
26014;SDS011;13793;55.388;37.844;2023-07-09T13:01:37;8.05;;;6.90;;
26014;SDS011;13793;55.388;37.844;2023-07-09T13:04:18;3.70;;;3.35;;
26014;SDS011;13793;55.388;37.844;2023-07-09T13:06:59;3.50;;;2.35;;
26014;SDS011;13793;55.388;37.844;2023-07-09T13:09:47;2.52;;;2.02;;
26014;SDS011;13793;55.388;37.844;2023-07-09T13:12:30;2.37;;;2.00;;
26014;SDS011;13793;55.388;37.844;2023-07-09T13:18:02;2.58;;;1.95;;
26014;SDS011;13793;55.388;37.844;2023-07-09T13:20:44;3.83;;;2.25;;
26014;SDS011;13793;55.388;37.844;2023-07-09T13:23:29;5.30;;;2.30;;
26014;SDS011;13793;55.388;37.844;2023-07-09T13:26:09;4.62;;;2.17;;
26014;SDS011;13793;55.388;37.844;2023-07-09T13:28:41;3.00;;;2.50;;
26014;SDS011;13793;55.388;37.844;2023-07-09T13:31:24;4.75;;;2.40;;
26014;SDS011;13793;55.388;37.844;2023-07-09T13:33:56;5.20;;;2.45;;
26014;SDS011;13793;55.388;37.844;2023-07-09T13:36:37;3.92;;;2.10;;
26014;SDS011;13793;55.388;37.844;2023-07-09T13:39:09;3.37;;;2.05;;
26014;SDS011;13793;55.388;37.844;2023-07-09T13:41:52;4.20;;;2.00;;
26014;SDS011;13793;55.388;37.844;2023-07-09T13:44:27;3.65;;;2.20;;
26014;SDS011;13793;55.388;37.844;2023-07-09T13:47:14;4.35;;;2.20;;
26014;SDS011;13793;55.388;37.844;2023-07-09T13:49:46;2.98;;;2.30;;
26014;SDS011;13793;55.388;37.844;2023-07-09T13:52:33;4.10;;;2.17;;
26014;SDS011;13793;55.388;37.844;2023-07-09T13:55:05;4.75;;;2.30;;
26014;SDS011;13793;55.388;37.844;2023-07-09T13:57:47;3.50;;;2.22;;
26014;SDS011;13793;55.388;37.844;2023-07-09T14:00:19;4.83;;;2.33;;
26014;SDS011;13793;55.388;37.844;2023-07-09T14:03:01;3.08;;;2.25;;
26014;SDS011;13793;55.388;37.844;2023-07-09T14:05:32;3.05;;;2.45;;
26014;SDS011;13793;55.388;37.844;2023-07-09T14:08:12;3.40;;;2.50;;
26014;SDS011;13793;55.388;37.844;2023-07-09T14:10:44;5.47;;;2.75;;
26014;SDS011;13793;55.388;37.844;2023-07-09T14:13:25;3.60;;;2.47;;
26014;SDS011;13793;55.388;37.844;2023-07-09T14:15:56;5.35;;;2.58;;
26014;SDS011;13793;55.388;37.844;2023-07-09T14:18:37;3.55;;;2.60;;
26014;SDS011;13793;55.388;37.844;2023-07-09T14:21:13;5.35;;;2.10;;
26014;SDS011;13793;55.388;37.844;2023-07-09T14:23:52;7.05;;;2.50;;
26014;SDS011;13793;55.388;37.844;2023-07-09T14:26:24;2.85;;;2.20;;
26014;SDS011;13793;55.388;37.844;2023-07-09T14:29:05;4.17;;;2.27;;
26014;SDS011;13793;55.388;37.844;2023-07-09T14:31:36;5.08;;;2.22;;
26014;SDS011;13793;55.388;37.844;2023-07-09T14:36:54;4.42;;;2.10;;
26014;SDS011;13793;55.388;37.844;2023-07-09T14:39:36;4.17;;;2.62;;
26014;SDS011;13793;55.388;37.844;2023-07-09T14:42:11;3.55;;;2.25;;
26014;SDS011;13793;55.388;37.844;2023-07-09T14:44:59;4.00;;;2.42;;
26014;SDS011;13793;55.388;37.844;2023-07-09T14:47:30;4.42;;;2.05;;
26014;SDS011;13793;55.388;37.844;2023-07-09T14:50:11;5.28;;;2.37;;
26014;SDS011;13793;55.388;37.844;2023-07-09T14:52:43;2.33;;;1.90;;
26014;SDS011;13793;55.388;37.844;2023-07-09T14:55:24;2.22;;;1.70;;
26014;SDS011;13793;55.388;37.844;2023-07-09T14:57:55;2.22;;;1.90;;
26014;SDS011;13793;55.388;37.844;2023-07-09T15:00:37;3.50;;;1.70;;
26014;SDS011;13793;55.388;37.844;2023-07-09T15:03:10;4.78;;;1.92;;
26014;SDS011;13793;55.388;37.844;2023-07-09T15:05:53;3.72;;;2.17;;
26014;SDS011;13793;55.388;37.844;2023-07-09T15:08:24;2.67;;;1.70;;
26014;SDS011;13793;55.388;37.844;2023-07-09T15:11:05;3.75;;;1.50;;
26014;SDS011;13793;55.388;37.844;2023-07-09T15:13:37;3.70;;;2.00;;
26014;SDS011;13793;55.388;37.844;2023-07-09T15:16:18;3.67;;;1.77;;
26014;SDS011;13793;55.388;37.844;2023-07-09T15:18:49;4.15;;;2.20;;
26014;SDS011;13793;55.388;37.844;2023-07-09T15:21:30;3.92;;;2.20;;
26014;SDS011;13793;55.388;37.844;2023-07-09T15:23:59;3.10;;;2.05;;
26014;SDS011;13793;55.388;37.844;2023-07-09T15:26:40;2.77;;;1.92;;
26014;SDS011;13793;55.388;37.844;2023-07-09T15:29:14;3.15;;;1.90;;
26014;SDS011;13793;55.388;37.844;2023-07-09T15:31:56;4.05;;;2.02;;
26014;SDS011;13793;55.388;37.844;2023-07-09T15:34:28;3.30;;;2.02;;
26014;SDS011;13793;55.388;37.844;2023-07-09T15:37:12;4.85;;;2.15;;
26014;SDS011;13793;55.388;37.844;2023-07-09T15:39:42;5.47;;;2.30;;
26014;SDS011;13793;55.388;37.844;2023-07-09T15:42:23;3.87;;;2.30;;
26014;SDS011;13793;55.388;37.844;2023-07-09T15:44:55;3.05;;;2.20;;
26014;SDS011;13793;55.388;37.844;2023-07-09T15:47:35;2.62;;;2.15;;
26014;SDS011;13793;55.388;37.844;2023-07-09T15:50:13;6.28;;;2.42;;
26014;SDS011;13793;55.388;37.844;2023-07-09T15:52:59;4.30;;;2.27;;
26014;SDS011;13793;55.388;37.844;2023-07-09T15:55:30;4.42;;;1.90;;
26014;SDS011;13793;55.388;37.844;2023-07-09T15:58:42;3.10;;;1.80;;
26014;SDS011;13793;55.388;37.844;2023-07-09T16:01:10;6.12;;;2.15;;
26014;SDS011;13793;55.388;37.844;2023-07-09T16:03:58;3.67;;;2.10;;
26014;SDS011;13793;55.388;37.844;2023-07-09T16:06:36;2.30;;;1.85;;
26014;SDS011;13793;55.388;37.844;2023-07-09T16:09:07;2.85;;;2.05;;
26014;SDS011;13793;55.388;37.844;2023-07-09T16:11:49;3.10;;;1.82;;
26014;SDS011;13793;55.388;37.844;2023-07-09T16:14:23;3.02;;;2.00;;
26014;SDS011;13793;55.388;37.844;2023-07-09T16:17:14;4.55;;;1.95;;
26014;SDS011;13793;55.388;37.844;2023-07-09T16:19:45;6.30;;;2.25;;